Time;durP1;ratioP1;P1;durP2;ratioP2;P2;SDS_P1;SDS_P2;PMS_P1;PMS_P2;Temp;Humidity;BMP_temperature;BMP_pressure;BME280_temperature;BME280_humidity;BME280_pressure;Samples;Min_cycle;Max_cycle;Signal;HPM_P1;HPM_P2
2023/04/29 00:01:19;;;;;;;1.90;1.45;;;;;;;;;;4158516;28;20112;-79
2023/04/29 00:03:40;;;;;;;1.40;1.40;;;;;;;;;;4172370;28;20307;-79
2023/04/29 00:06:00;;;;;;;2.35;2.15;;;;;;;;;;4177242;28;20135;-79
2023/04/29 00:08:22;;;;;;;2.45;1.85;;;;;;;;;;4172898;28;20410;-79
2023/04/29 00:10:44;;;;;;;1.50;1.50;;;;;;;;;;4158885;28;20088;-79
2023/04/29 00:13:04;;;;;;;1.77;1.67;;;;;;;;;;4160177;28;20061;-79
2023/04/29 00:15:24;;;;;;;2.47;2.28;;;;;;;;;;4161580;28;20056;-79
2023/04/29 00:17:45;;;;;;;2.33;1.70;;;;;;;;;;4174861;28;20061;-79
2023/04/29 00:20:06;;;;;;;1.33;1.33;;;;;;;;;;4158863;28;20072;-79
2023/04/29 00:22:26;;;;;;;1.67;1.58;;;;;;;;;;4179358;28;20051;-79
2023/04/29 00:24:47;;;;;;;1.90;1.80;;;;;;;;;;4170112;28;20059;-79
2023/04/29 00:27:07;;;;;;;1.95;1.85;;;;;;;;;;4161884;28;20114;-79
2023/04/29 00:29:28;;;;;;;1.60;1.50;;;;;;;;;;4182307;28;20052;-79
2023/04/29 00:31:49;;;;;;;1.98;1.60;;;;;;;;;;4178770;28;20425;-79
2023/04/29 00:34:09;;;;;;;1.90;1.80;;;;;;;;;;4175286;28;20056;-79
2023/04/29 00:36:31;;;;;;;1.52;1.52;;;;;;;;;;4176286;28;20053;-81
2023/04/29 00:38:51;;;;;;;2.20;2.05;;;;;;;;;;4182264;28;20232;-81
2023/04/29 00:41:11;;;;;;;1.77;1.67;;;;;;;;;;4155551;28;20061;-81
2023/04/29 00:43:31;;;;;;;1.90;1.90;;;;;;;;;;4162705;28;20078;-81
2023/04/29 00:45:53;;;;;;;2.78;2.15;;;;;;;;;;4178187;28;20091;-82
2023/04/29 00:48:16;;;;;;;2.45;1.70;;;;;;;;;;4163557;28;20403;-81
2023/04/29 00:50:36;;;;;;;2.53;1.95;;;;;;;;;;4174766;28;20048;-82
2023/04/29 00:52:56;;;;;;;1.92;1.83;;;;;;;;;;4179949;28;20088;-82
2023/04/29 00:55:17;;;;;;;5.97;1.95;;;;;;;;;;4152470;28;20144;-82
2023/04/29 00:57:38;;;;;;;2.17;2.03;;;;;;;;;;4173063;28;20407;-81
2023/04/29 00:59:58;;;;;;;3.58;2.42;;;;;;;;;;4163892;28;20119;-82
2023/04/29 01:02:19;;;;;;;6.90;3.15;;;;;;;;;;4184827;28;20424;-82
2023/04/29 01:04:39;;;;;;;2.95;2.08;;;;;;;;;;4176153;28;20061;-82
2023/04/29 01:07:03;;;;;;;2.35;2.13;;;;;;;;;;4174555;28;20104;-82
2023/04/29 01:09:29;;;;;;;1.63;1.52;;;;;;;;;;4161033;28;20044;-82
2023/04/29 01:12:10;;;;;;;1.63;1.63;;;;;;;;;;4173697;28;20175;-82
2023/04/29 01:14:32;;;;;;;2.38;1.95;;;;;;;;;;4152308;28;20097;-82
2023/04/29 01:16:56;;;;;;;1.80;1.70;;;;;;;;;;4182377;28;20270;-81
2023/04/29 01:19:19;;;;;;;1.92;1.92;;;;;;;;;;4176721;28;20078;-82
2023/04/29 01:21:49;;;;;;;2.88;2.00;;;;;;;;;;4174085;28;20060;-81
2023/04/29 01:24:09;;;;;;;3.50;1.83;;;;;;;;;;4152526;28;20094;-81
2023/04/29 01:26:31;;;;;;;2.35;1.92;;;;;;;;;;4155391;28;20391;-82
2023/04/29 01:29:08;;;;;;;3.17;2.53;;;;;;;;;;4175065;28;20048;-81
2023/04/29 01:31:36;;;;;;;1.77;1.67;;;;;;;;;;4173392;28;20049;-82
2023/04/29 01:34:17;;;;;;;2.03;1.92;;;;;;;;;;4170619;28;20053;-81
2023/04/29 01:36:40;;;;;;;1.85;1.85;;;;;;;;;;4159700;28;20053;-82
2023/04/29 01:39:11;;;;;;;3.30;2.55;;;;;;;;;;4177017;28;20069;-82
2023/04/29 01:41:40;;;;;;;1.90;1.83;;;;;;;;;;4175708;28;20075;-81
2023/04/29 01:44:03;;;;;;;2.10;2.00;;;;;;;;;;4173804;28;20056;-82
2023/04/29 01:46:23;;;;;;;1.98;1.90;;;;;;;;;;4177496;28;20108;-82
2023/04/29 01:48:44;;;;;;;1.77;1.77;;;;;;;;;;4179095;28;20117;-81
2023/04/29 01:51:05;;;;;;;2.63;2.05;;;;;;;;;;4179214;28;20403;-82
2023/04/29 01:53:26;;;;;;;1.97;1.87;;;;;;;;;;4163104;28;20053;-81
2023/04/29 01:55:47;;;;;;;2.15;1.90;;;;;;;;;;4172714;28;20472;-81
2023/04/29 01:58:08;;;;;;;2.10;2.10;;;;;;;;;;4172042;28;20048;-82
2023/04/29 02:00:28;;;;;;;2.33;1.83;;;;;;;;;;4158750;28;20065;-82
2023/04/29 02:02:48;;;;;;;2.33;2.13;;;;;;;;;;4174665;28;20241;-81
2023/04/29 02:05:09;;;;;;;2.10;1.83;;;;;;;;;;4173333;28;20049;-82
2023/04/29 02:07:29;;;;;;;2.50;2.30;;;;;;;;;;4174568;28;20329;-81
2023/04/29 02:09:49;;;;;;;2.65;2.42;;;;;;;;;;4165286;28;20099;-82
2023/04/29 02:12:10;;;;;;;2.33;2.15;;;;;;;;;;4158752;28;20061;-82
2023/04/29 02:14:32;;;;;;;1.98;1.88;;;;;;;;;;4178126;28;20056;-82
2023/04/29 02:16:52;;;;;;;2.10;2.10;;;;;;;;;;4176298;28;20280;-81
2023/04/29 02:19:12;;;;;;;2.70;2.50;;;;;;;;;;4177042;28;20052;-81
2023/04/29 02:21:34;;;;;;;2.22;2.13;;;;;;;;;;4155963;28;20300;-81
2023/04/29 02:23:54;;;;;;;3.30;2.10;;;;;;;;;;4155841;28;20058;-82
2023/04/29 02:26:14;;;;;;;2.10;2.00;;;;;;;;;;4175219;28;20359;-82
2023/04/29 02:28:34;;;;;;;2.70;2.50;;;;;;;;;;4154811;28;20347;-81
2023/04/29 02:30:54;;;;;;;2.67;2.58;;;;;;;;;;4175688;28;20052;-81
2023/04/29 02:33:15;;;;;;;2.33;2.22;;;;;;;;;;4159931;28;20061;-82
2023/04/29 02:35:36;;;;;;;2.38;2.17;;;;;;;;;;4161204;28;20067;-81
2023/04/29 02:37:56;;;;;;;2.58;2.58;;;;;;;;;;4170977;28;20238;-81
2023/04/29 02:40:16;;;;;;;2.55;2.40;;;;;;;;;;4182354;28;20135;-81
2023/04/29 02:42:37;;;;;;;1.70;1.70;;;;;;;;;;4172606;28;20044;-81
2023/04/29 02:44:57;;;;;;;3.00;2.80;;;;;;;;;;4161444;28;20371;-81
2023/04/29 02:47:17;;;;;;;2.50;2.35;;;;;;;;;;4153891;28;20075;-82
2023/04/29 02:49:38;;;;;;;2.95;2.63;;;;;;;;;;4169485;28;20086;-81
2023/04/29 02:51:58;;;;;;;3.42;3.03;;;;;;;;;;4161442;28;20111;-81
2023/04/29 02:54:18;;;;;;;7.35;2.47;;;;;;;;;;4173044;28;20307;-82
2023/04/29 02:56:39;;;;;;;7.07;2.60;;;;;;;;;;4155475;28;20378;-82
2023/04/29 02:58:59;;;;;;;7.43;3.40;;;;;;;;;;4170326;28;20068;-82
2023/04/29 03:01:19;;;;;;;3.22;2.92;;;;;;;;;;4178140;28;20381;-81
2023/04/29 03:03:39;;;;;;;2.95;2.85;;;;;;;;;;4162320;28;20092;-81
2023/04/29 03:06:00;;;;;;;4.45;3.20;;;;;;;;;;4173549;28;20099;-81
2023/04/29 03:08:21;;;;;;;2.67;2.22;;;;;;;;;;4156366;28;20162;-81
2023/04/29 03:10:41;;;;;;;3.20;3.10;;;;;;;;;;4159701;28;20072;-81
2023/04/29 03:13:02;;;;;;;3.63;3.42;;;;;;;;;;4175398;28;20057;-81
2023/04/29 03:15:22;;;;;;;2.67;2.58;;;;;;;;;;4164480;28;20060;-82
2023/04/29 03:17:45;;;;;;;2.47;2.38;;;;;;;;;;4179272;28;20048;-81
2023/04/29 03:20:06;;;;;;;2.75;2.65;;;;;;;;;;4179833;28;20076;-81
2023/04/29 03:22:26;;;;;;;2.15;2.15;;;;;;;;;;4162923;28;20093;-81
2023/04/29 03:24:47;;;;;;;2.40;2.30;;;;;;;;;;4175599;28;20057;-81
2023/04/29 03:27:07;;;;;;;2.58;2.47;;;;;;;;;;4162885;28;20274;-81
2023/04/29 03:29:27;;;;;;;1.80;1.70;;;;;;;;;;4164606;28;20045;-81
2023/04/29 03:31:48;;;;;;;2.60;2.50;;;;;;;;;;4176979;28;20095;-81
2023/04/29 03:34:09;;;;;;;4.10;2.35;;;;;;;;;;4180449;28;20280;-81
2023/04/29 03:36:29;;;;;;;2.80;2.60;;;;;;;;;;4160220;28;20045;-81
2023/04/29 03:38:50;;;;;;;2.95;2.78;;;;;;;;;;4174379;28;20056;-81
2023/04/29 03:41:10;;;;;;;2.65;2.45;;;;;;;;;;4162945;28;20057;-81
2023/04/29 03:43:30;;;;;;;3.45;3.35;;;;;;;;;;4165583;28;20480;-81
2023/04/29 03:45:50;;;;;;;3.53;3.33;;;;;;;;;;4159812;28;20057;-81
2023/04/29 03:48:11;;;;;;;3.17;3.08;;;;;;;;;;4174041;28;20079;-81
2023/04/29 03:50:31;;;;;;;3.22;3.13;;;;;;;;;;4178326;28;20132;-81
2023/04/29 03:52:52;;;;;;;3.53;3.20;;;;;;;;;;4174463;28;20048;-81
2023/04/29 03:55:12;;;;;;;2.95;2.75;;;;;;;;;;4161775;28;20064;-81
2023/04/29 03:57:32;;;;;;;2.75;2.65;;;;;;;;;;4159321;28;20249;-81
2023/04/29 03:59:52;;;;;;;3.88;3.35;;;;;;;;;;4148344;28;20058;-81
2023/04/29 04:02:13;;;;;;;3.15;3.05;;;;;;;;;;4174935;28;20091;-81
2023/04/29 04:04:33;;;;;;;2.38;2.35;;;;;;;;;;4161793;28;20059;-81
2023/04/29 04:06:54;;;;;;;3.47;3.28;;;;;;;;;;4175470;28;20063;-81
2023/04/29 04:09:14;;;;;;;3.15;2.85;;;;;;;;;;4170979;28;20237;-81
2023/04/29 04:11:35;;;;;;;2.78;2.78;;;;;;;;;;4176910;28;20064;-81
2023/04/29 04:13:55;;;;;;;3.65;3.35;;;;;;;;;;4161941;28;20076;-81
2023/04/29 04:16:15;;;;;;;3.08;2.97;;;;;;;;;;4173572;28;20087;-81
2023/04/29 04:18:36;;;;;;;7.95;3.05;;;;;;;;;;4170505;28;20083;-81
2023/04/29 04:20:56;;;;;;;4.57;2.28;;;;;;;;;;4162190;28;20120;-81
2023/04/29 04:23:16;;;;;;;3.13;3.03;;;;;;;;;;4154775;28;20052;-81
2023/04/29 04:25:37;;;;;;;2.85;2.72;;;;;;;;;;4161697;28;20045;-81
2023/04/29 04:27:57;;;;;;;3.10;2.97;;;;;;;;;;4165683;28;20056;-81
2023/04/29 04:30:18;;;;;;;3.45;3.17;;;;;;;;;;4156104;28;20080;-81
2023/04/29 04:32:39;;;;;;;2.75;2.65;;;;;;;;;;4171001;28;20076;-81
2023/04/29 04:34:59;;;;;;;4.05;3.95;;;;;;;;;;4164106;28;20361;-81
2023/04/29 04:37:19;;;;;;;3.17;3.08;;;;;;;;;;4171479;28;20056;-81
2023/04/29 04:39:40;;;;;;;3.15;2.97;;;;;;;;;;4168934;28;20080;-81
2023/04/29 04:42:02;;;;;;;3.80;2.90;;;;;;;;;;4179469;28;20236;-81
2023/04/29 04:44:22;;;;;;;3.33;2.78;;;;;;;;;;4172865;28;20233;-81
2023/04/29 04:46:43;;;;;;;3.33;3.03;;;;;;;;;;4176969;28;20043;-81
2023/04/29 04:49:03;;;;;;;3.00;2.90;;;;;;;;;;4183253;28;20053;-81
2023/04/29 04:51:23;;;;;;;3.20;3.10;;;;;;;;;;4157612;28;20077;-81
2023/04/29 04:53:43;;;;;;;2.60;2.40;;;;;;;;;;4159453;28;20288;-81
2023/04/29 04:56:03;;;;;;;3.60;2.80;;;;;;;;;;4181913;28;20048;-81
2023/04/29 04:58:25;;;;;;;3.72;3.47;;;;;;;;;;4179397;28;20044;-81
2023/04/29 05:00:45;;;;;;;4.45;2.75;;;;;;;;;;4158247;28;20053;-81
2023/04/29 05:03:05;;;;;;;3.60;3.30;;;;;;;;;;4178726;28;20068;-81
2023/04/29 05:05:26;;;;;;;3.95;3.75;;;;;;;;;;4184739;28;20053;-81
2023/04/29 05:07:47;;;;;;;3.97;3.78;;;;;;;;;;4163033;28;20045;-81
2023/04/29 05:10:07;;;;;;;2.80;2.70;;;;;;;;;;4159555;28;20132;-81
2023/04/29 05:12:29;;;;;;;2.90;2.88;;;;;;;;;;4177435;28;20254;-81
2023/04/29 05:14:52;;;;;;;3.47;3.30;;;;;;;;;;4160919;28;20045;-81
2023/04/29 05:17:12;;;;;;;3.15;3.05;;;;;;;;;;4172534;28;20055;-81
2023/04/29 05:19:33;;;;;;;3.33;3.17;;;;;;;;;;4174245;28;20045;-81
2023/04/29 05:21:53;;;;;;;3.53;3.17;;;;;;;;;;4175750;28;20087;-81
2023/04/29 05:24:14;;;;;;;3.30;3.20;;;;;;;;;;4155627;28;20052;-81
2023/04/29 05:26:35;;;;;;;3.72;3.35;;;;;;;;;;4166981;28;20080;-81
2023/04/29 05:28:55;;;;;;;3.30;3.20;;;;;;;;;;4171214;28;20049;-81
2023/04/29 05:31:15;;;;;;;2.60;2.50;;;;;;;;;;4163080;28;20136;-81
2023/04/29 05:33:35;;;;;;;4.05;3.83;;;;;;;;;;4176204;28;20047;-81
2023/04/29 05:35:56;;;;;;;4.35;4.00;;;;;;;;;;4154775;28;20348;-81
2023/04/29 05:38:16;;;;;;;3.60;3.50;;;;;;;;;;4173659;28;20053;-81
2023/04/29 05:40:37;;;;;;;3.90;3.80;;;;;;;;;;4178397;28;20151;-81
2023/04/29 05:42:57;;;;;;;4.65;4.07;;;;;;;;;;4162180;28;20064;-81
2023/04/29 05:45:17;;;;;;;3.78;3.65;;;;;;;;;;4172316;28;20055;-81
2023/04/29 05:47:37;;;;;;;3.90;3.72;;;;;;;;;;4174596;28;20354;-81
2023/04/29 05:49:58;;;;;;;3.22;3.17;;;;;;;;;;4164024;28;20099;-81
2023/04/29 05:52:18;;;;;;;9.43;3.78;;;;;;;;;;4148873;28;20326;-81
2023/04/29 05:54:38;;;;;;;3.38;3.17;;;;;;;;;;4175782;28;20402;-81
2023/04/29 05:57:01;;;;;;;3.60;3.38;;;;;;;;;;4174563;28;20048;-81
2023/04/29 05:59:21;;;;;;;3.17;3.08;;;;;;;;;;4157350;28;20077;-81
2023/04/29 06:01:41;;;;;;;3.00;2.90;;;;;;;;;;4153463;28;20388;-81
2023/04/29 06:04:01;;;;;;;3.25;3.05;;;;;;;;;;4166292;28;20259;-81
2023/04/29 06:06:22;;;;;;;2.90;2.80;;;;;;;;;;4176230;28;20096;-81
2023/04/29 06:08:42;;;;;;;3.20;2.92;;;;;;;;;;4161815;28;20063;-81
2023/04/29 06:11:04;;;;;;;6.07;3.30;;;;;;;;;;4161933;28;20080;-81
2023/04/29 06:13:25;;;;;;;3.42;3.30;;;;;;;;;;4176987;28;20048;-81
2023/04/29 06:15:45;;;;;;;2.75;2.55;;;;;;;;;;4162763;28;20356;-81
2023/04/29 06:18:05;;;;;;;3.03;2.80;;;;;;;;;;4161216;28;20067;-81
2023/04/29 06:20:26;;;;;;;5.40;2.53;;;;;;;;;;4176692;28;20105;-81
2023/04/29 06:22:46;;;;;;;3.00;2.85;;;;;;;;;;4157247;28;20077;-81
2023/04/29 06:25:06;;;;;;;3.35;2.80;;;;;;;;;;4159103;28;20072;-81
2023/04/29 06:27:27;;;;;;;3.30;3.10;;;;;;;;;;4170754;28;20060;-81
2023/04/29 06:29:47;;;;;;;3.08;2.50;;;;;;;;;;4175319;28;20275;-81
2023/04/29 06:32:07;;;;;;;2.78;2.50;;;;;;;;;;4159303;28;20053;-81
2023/04/29 06:34:27;;;;;;;2.53;2.47;;;;;;;;;;4176734;28;20055;-81
2023/04/29 06:36:48;;;;;;;2.63;2.53;;;;;;;;;;4160424;28;20060;-81
2023/04/29 06:39:08;;;;;;;3.22;3.00;;;;;;;;;;4175143;28;20060;-81
2023/04/29 06:41:28;;;;;;;2.95;2.45;;;;;;;;;;4172866;28;20040;-89
2023/04/29 06:43:51;;;;;;;2.22;2.20;;;;;;;;;;4173144;28;20374;-89
2023/04/29 06:46:11;;;;;;;3.05;2.85;;;;;;;;;;4171036;28;20452;-89
2023/04/29 06:48:32;;;;;;;2.63;2.53;;;;;;;;;;4164247;28;20089;-90
2023/04/29 06:50:56;;;;;;;3.00;2.08;;;;;;;;;;4168844;28;20064;-90
2023/04/29 06:53:16;;;;;;;2.72;2.47;;;;;;;;;;4160149;28;20088;-90
2023/04/29 06:55:37;;;;;;;2.17;2.00;;;;;;;;;;4178618;28;20072;-87
2023/04/29 06:57:57;;;;;;;2.45;1.83;;;;;;;;;;4164785;28;20233;-89
2023/04/29 07:00:19;;;;;;;2.25;1.67;;;;;;;;;;4157234;28;20345;-88
2023/04/29 07:02:40;;;;;;;1.90;1.80;;;;;;;;;;4176937;28;20159;-89
2023/04/29 07:05:00;;;;;;;2.20;2.10;;;;;;;;;;4165886;28;20053;-89
2023/04/29 07:07:20;;;;;;;1.42;1.42;;;;;;;;;;4164577;28;20281;-89
2023/04/29 07:09:40;;;;;;;1.95;1.83;;;;;;;;;;4174895;28;20149;-89
2023/04/29 07:12:01;;;;;;;3.88;2.00;;;;;;;;;;4163026;28;20061;-89
2023/04/29 07:14:21;;;;;;;4.18;1.83;;;;;;;;;;4166581;28;20154;-89
2023/04/29 07:16:42;;;;;;;2.15;2.05;;;;;;;;;;4166225;28;20053;-87
2023/04/29 07:19:02;;;;;;;1.40;1.30;;;;;;;;;;4162768;28;20052;-87
2023/04/29 07:21:22;;;;;;;2.00;1.95;;;;;;;;;;4170401;28;20049;-87
2023/04/29 07:23:42;;;;;;;3.13;1.30;;;;;;;;;;4159387;28;20053;-87
2023/04/29 07:26:12;;;;;;;1.20;1.20;;;;;;;;;;4172319;28;20048;-87
2023/04/29 07:28:32;;;;;;;4.72;1.10;;;;;;;;;;4168560;28;20459;-87
2023/04/29 07:30:53;;;;;;;3.33;1.50;;;;;;;;;;4165610;28;20081;-87
2023/04/29 07:33:13;;;;;;;1.40;1.30;;;;;;;;;;4182769;28;20092;-83
2023/04/29 07:35:33;;;;;;;2.80;1.20;;;;;;;;;;4168200;28;20080;-83
2023/04/29 07:37:55;;;;;;;4.07;1.20;;;;;;;;;;4158672;28;20110;-83
2023/04/29 07:40:15;;;;;;;1.20;1.20;;;;;;;;;;4160715;28;20044;-83
2023/04/29 07:42:35;;;;;;;1.30;1.17;;;;;;;;;;4169031;28;20049;-83
2023/04/29 07:44:55;;;;;;;2.15;1.50;;;;;;;;;;4182879;28;20056;-83
2023/04/29 07:47:15;;;;;;;3.10;1.83;;;;;;;;;;4146073;28;20054;-83
2023/04/29 07:49:36;;;;;;;2.60;1.40;;;;;;;;;;4162023;28;20060;-83
2023/04/29 07:51:56;;;;;;;1.77;1.10;;;;;;;;;;4164753;28;20362;-83
2023/04/29 07:54:18;;;;;;;2.35;1.30;;;;;;;;;;4160488;28;20053;-83
2023/04/29 07:56:38;;;;;;;1.75;1.52;;;;;;;;;;4166581;28;20387;-83
2023/04/29 07:59:00;;;;;;;1.95;1.20;;;;;;;;;;4164254;28;20056;-83
2023/04/29 08:01:20;;;;;;;3.10;1.20;;;;;;;;;;4165200;28;20044;-82
2023/04/29 08:03:41;;;;;;;1.40;1.30;;;;;;;;;;4160328;28;20084;-82
2023/04/29 08:06:02;;;;;;;1.20;1.10;;;;;;;;;;4166206;28;20052;-82
2023/04/29 08:08:23;;;;;;;2.78;1.80;;;;;;;;;;4179673;28;20048;-83
2023/04/29 08:10:43;;;;;;;1.40;1.30;;;;;;;;;;4174332;28;20072;-83
2023/04/29 08:13:03;;;;;;;1.02;1.00;;;;;;;;;;4157508;28;20091;-82
2023/04/29 08:15:24;;;;;;;1.20;1.10;;;;;;;;;;4167597;28;20048;-82
2023/04/29 08:17:44;;;;;;;1.48;1.10;;;;;;;;;;4164721;28;20053;-83
2023/04/29 08:20:06;;;;;;;2.03;1.33;;;;;;;;;;4157418;28;20100;-83
2023/04/29 08:22:27;;;;;;;2.25;1.30;;;;;;;;;;4169836;28;20040;-83
2023/04/29 08:24:48;;;;;;;3.03;1.30;;;;;;;;;;4172443;28;20044;-83
2023/04/29 08:27:08;;;;;;;3.35;1.52;;;;;;;;;;4153218;28;20069;-83
2023/04/29 08:29:31;;;;;;;2.47;1.05;;;;;;;;;;4151869;28;20053;-83
2023/04/29 08:31:51;;;;;;;;;;;;;;;;;;4155595;28;20105;-83
2023/04/29 08:34:12;;;;;;;2.38;1.10;;;;;;;;;;4173571;28;19924;-83
2023/04/29 08:36:32;;;;;;;1.60;1.10;;;;;;;;;;4151160;28;20049;-83
2023/04/29 08:38:53;;;;;;;1.10;1.10;;;;;;;;;;4166540;28;20105;-83
2023/04/29 08:41:15;;;;;;;1.15;1.10;;;;;;;;;;4159407;28;20048;-83
2023/04/29 08:43:39;;;;;;;0.90;0.90;;;;;;;;;;4170966;28;20068;-83
2023/04/29 08:45:59;;;;;;;1.10;1.10;;;;;;;;;;4153085;28;20093;-83
2023/04/29 08:48:20;;;;;;;1.15;0.90;;;;;;;;;;4155082;28;20110;-83
2023/04/29 08:50:41;;;;;;;5.10;1.10;;;;;;;;;;4160959;28;20087;-83
2023/04/29 08:53:01;;;;;;;1.10;1.00;;;;;;;;;;4154489;28;20057;-83
2023/04/29 08:55:21;;;;;;;1.48;1.35;;;;;;;;;;4156113;28;20396;-83
2023/04/29 08:57:42;;;;;;;2.55;1.10;;;;;;;;;;4173624;28;20276;-83
2023/04/29 09:00:03;;;;;;;2.00;1.00;;;;;;;;;;4170333;28;20044;-83
2023/04/29 09:02:24;;;;;;;2.80;1.10;;;;;;;;;;4162262;28;20113;-83
2023/04/29 09:04:45;;;;;;;1.10;1.10;;;;;;;;;;4166053;28;20132;-83
2023/04/29 09:07:07;;;;;;;1.95;1.75;;;;;;;;;;4177572;28;20040;-83
2023/04/29 09:09:27;;;;;;;1.83;1.73;;;;;;;;;;4181484;28;20405;-83
2023/04/29 09:11:47;;;;;;;1.77;1.52;;;;;;;;;;4161125;28;20111;-83
2023/04/29 09:14:08;;;;;;;1.85;1.75;;;;;;;;;;4160259;28;20052;-83
2023/04/29 09:16:28;;;;;;;2.25;1.30;;;;;;;;;;4178989;28;20048;-83
2023/04/29 09:18:49;;;;;;;2.45;1.40;;;;;;;;;;4162015;28;20048;-83
2023/04/29 09:21:13;;;;;;;1.45;1.35;;;;;;;;;;4161406;28;20045;-83
2023/04/29 09:23:37;;;;;;;1.25;1.10;;;;;;;;;;4161464;28;20131;-83
2023/04/29 09:25:57;;;;;;;1.73;1.63;;;;;;;;;;4169623;28;20087;-83
2023/04/29 09:28:17;;;;;;;1.70;1.60;;;;;;;;;;4154266;28;20044;-83
2023/04/29 09:30:46;;;;;;;1.30;1.20;;;;;;;;;;4157863;28;20264;-83
2023/04/29 09:33:07;;;;;;;1.70;1.60;;;;;;;;;;4177341;28;20371;-83
2023/04/29 09:35:28;;;;;;;2.30;1.70;;;;;;;;;;4166524;28;20090;-83
2023/04/29 09:37:48;;;;;;;1.40;1.30;;;;;;;;;;4156697;28;20098;-83
2023/04/29 09:40:29;;;;;;;2.13;1.50;;;;;;;;;;4171898;28;20328;-83
2023/04/29 09:42:50;;;;;;;1.27;1.27;;;;;;;;;;4158887;28;20080;-83
2023/04/29 09:45:11;;;;;;;1.20;1.10;;;;;;;;;;4164734;28;20406;-83
2023/04/29 09:47:32;;;;;;;2.08;1.25;;;;;;;;;;4163870;28;20053;-83
2023/04/29 09:49:52;;;;;;;2.20;2.00;;;;;;;;;;4175303;28;20052;-83
2023/04/29 09:52:13;;;;;;;1.67;1.58;;;;;;;;;;4161157;28;20072;-82
2023/04/29 09:54:35;;;;;;;3.70;1.70;;;;;;;;;;4179673;28;20321;-83
2023/04/29 09:56:55;;;;;;;5.45;1.35;;;;;;;;;;4177664;28;20222;-83
2023/04/29 09:59:16;;;;;;;3.00;1.58;;;;;;;;;;4160150;28;20073;-82
2023/04/29 10:01:37;;;;;;;1.67;1.30;;;;;;;;;;4174137;28;20286;-82
2023/04/29 10:03:57;;;;;;;3.55;2.00;;;;;;;;;;4171269;28;20048;-82
2023/04/29 10:06:18;;;;;;;1.20;1.10;;;;;;;;;;4154311;28;20383;-83
2023/04/29 10:08:40;;;;;;;1.38;1.27;;;;;;;;;;4179121;28;20113;-83
2023/04/29 10:11:01;;;;;;;4.97;1.83;;;;;;;;;;4177612;28;20110;-83
2023/04/29 10:13:25;;;;;;;1.30;1.20;;;;;;;;;;4157112;28;20048;-83
2023/04/29 10:15:49;;;;;;;1.10;1.10;;;;;;;;;;4160819;28;20068;-83
2023/04/29 10:18:09;;;;;;;1.17;1.17;;;;;;;;;;4167097;28;20072;-83
2023/04/29 10:20:30;;;;;;;4.97;1.25;;;;;;;;;;4159390;28;20058;-86
2023/04/29 10:22:55;;;;;;;1.20;1.20;;;;;;;;;;4178626;28;20044;-77
2023/04/29 10:25:16;;;;;;;1.13;1.10;;;;;;;;;;4169582;28;20537;-77
2023/04/29 10:27:37;;;;;;;2.42;1.30;;;;;;;;;;4161104;28;20068;-77
2023/04/29 10:29:58;;;;;;;1.80;1.50;;;;;;;;;;4174031;28;20091;-77
2023/04/29 10:32:22;;;;;;;1.17;1.15;;;;;;;;;;4174347;28;20088;-77
2023/04/29 10:34:43;;;;;;;1.20;1.10;;;;;;;;;;4173153;28;20048;-77
2023/04/29 10:37:03;;;;;;;1.38;1.20;;;;;;;;;;4159743;28;20085;-77
2023/04/29 10:39:43;;;;;;;2.30;1.10;;;;;;;;;;4166719;28;20094;-77
2023/04/29 10:42:05;;;;;;;1.15;1.15;;;;;;;;;;4175712;28;20048;-77
2023/04/29 10:44:26;;;;;;;1.63;1.40;;;;;;;;;;4175420;28;20061;-77
2023/04/29 10:46:46;;;;;;;1.10;1.10;;;;;;;;;;4178629;28;20111;-77
2023/04/29 10:49:06;;;;;;;1.33;1.15;;;;;;;;;;4152433;28;20065;-77
2023/04/29 10:51:35;;;;;;;1.92;1.38;;;;;;;;;;4173925;28;20049;-77
2023/04/29 10:54:01;;;;;;;1.48;1.38;;;;;;;;;;4169486;28;20084;-77
2023/04/29 10:56:22;;;;;;;2.40;1.60;;;;;;;;;;4175556;28;20048;-77
2023/04/29 10:58:46;;;;;;;1.52;1.40;;;;;;;;;;4168746;28;20095;-77
2023/04/29 11:01:09;;;;;;;4.10;1.23;;;;;;;;;;4173879;28;20055;-80
2023/04/29 11:03:44;;;;;;;2.78;1.33;;;;;;;;;;4155583;28;20399;-81
2023/04/29 11:06:08;;;;;;;1.75;1.60;;;;;;;;;;4159116;28;20056;-80
2023/04/29 11:08:29;;;;;;;3.65;1.80;;;;;;;;;;4179763;28;20056;-81
2023/04/29 11:10:53;;;;;;;1.92;1.65;;;;;;;;;;4177857;28;20087;-81
2023/04/29 11:13:29;;;;;;;4.00;2.17;;;;;;;;;;4172465;28;20080;-81
2023/04/29 11:15:51;;;;;;;3.70;2.30;;;;;;;;;;4174204;28;20048;-80
2023/04/29 11:18:11;;;;;;;3.33;2.20;;;;;;;;;;4183197;28;20407;-80
2023/04/29 11:20:51;;;;;;;3.33;1.95;;;;;;;;;;4174726;28;20072;-81
2023/04/29 11:23:12;;;;;;;3.15;2.25;;;;;;;;;;4164233;28;20064;-81
2023/04/29 11:25:32;;;;;;;2.03;1.92;;;;;;;;;;4161846;28;20056;-81
2023/04/29 11:27:54;;;;;;;3.00;1.67;;;;;;;;;;4157565;28;20112;-81
2023/04/29 11:30:15;;;;;;;2.67;2.35;;;;;;;;;;4157905;28;20362;-81
2023/04/29 11:32:37;;;;;;;3.72;3.40;;;;;;;;;;4169394;28;20387;-81
2023/04/29 11:35:14;;;;;;;3.40;3.10;;;;;;;;;;4178004;28;20423;-81
2023/04/29 11:37:35;;;;;;;2.47;2.38;;;;;;;;;;4156942;28;20093;-81
2023/04/29 11:39:59;;;;;;;2.45;2.33;;;;;;;;;;4151213;28;20102;-81
2023/04/29 11:42:20;;;;;;;2.20;2.10;;;;;;;;;;4171489;28;20402;-81
2023/04/29 11:44:40;;;;;;;3.38;2.28;;;;;;;;;;4173570;28;20043;-81
2023/04/29 11:47:03;;;;;;;1.98;1.88;;;;;;;;;;4163637;28;20498;-81
2023/04/29 11:49:27;;;;;;;3.20;2.97;;;;;;;;;;4171907;28;20092;-81
2023/04/29 11:51:47;;;;;;;2.80;2.63;;;;;;;;;;4161624;28;20061;-81
2023/04/29 11:54:07;;;;;;;2.90;2.70;;;;;;;;;;4182238;28;20082;-81
2023/04/29 11:56:27;;;;;;;2.25;2.08;;;;;;;;;;4174268;28;20052;-81
2023/04/29 11:58:48;;;;;;;2.78;2.55;;;;;;;;;;4175276;28;20115;-81
2023/04/29 12:01:08;;;;;;;5.30;3.78;;;;;;;;;;4162940;28;20048;-81
2023/04/29 12:03:28;;;;;;;3.20;2.65;;;;;;;;;;4182729;28;20039;-81
2023/04/29 12:05:53;;;;;;;2.25;2.15;;;;;;;;;;4160171;28;20056;-81
2023/04/29 12:08:14;;;;;;;2.42;2.28;;;;;;;;;;4160678;28;20045;-81
2023/04/29 12:10:37;;;;;;;2.88;2.67;;;;;;;;;;4168536;28;20083;-81
2023/04/29 12:12:57;;;;;;;2.22;2.13;;;;;;;;;;4162767;28;20084;-81
2023/04/29 12:15:17;;;;;;;3.25;2.72;;;;;;;;;;4174549;28;20052;-81
2023/04/29 12:17:38;;;;;;;2.70;2.22;;;;;;;;;;4179812;28;20109;-82
2023/04/29 12:19:59;;;;;;;2.90;2.53;;;;;;;;;;4163255;28;20064;-82
2023/04/29 12:22:19;;;;;;;2.35;2.25;;;;;;;;;;4174607;28;20051;-82
2023/04/29 12:24:39;;;;;;;2.28;2.17;;;;;;;;;;4172881;28;20052;-81
2023/04/29 12:27:00;;;;;;;3.28;2.85;;;;;;;;;;4160935;28;20240;-82
2023/04/29 12:29:23;;;;;;;2.30;2.20;;;;;;;;;;4155772;28;20064;-81
2023/04/29 12:31:46;;;;;;;1.70;1.70;;;;;;;;;;4161330;28;20072;-82
2023/04/29 12:34:07;;;;;;;2.35;2.00;;;;;;;;;;4173547;28;20052;-82
2023/04/29 12:36:31;;;;;;;3.28;2.28;;;;;;;;;;4174733;28;20105;-82
2023/04/29 12:38:53;;;;;;;2.30;2.08;;;;;;;;;;4155414;28;20053;-81
2023/04/29 12:41:16;;;;;;;2.10;2.00;;;;;;;;;;4154129;28;20053;-82
2023/04/29 12:43:36;;;;;;;2.80;2.53;;;;;;;;;;4159050;28;20044;-81
2023/04/29 12:46:01;;;;;;;3.10;2.92;;;;;;;;;;4173971;28;20053;-82
2023/04/29 12:48:22;;;;;;;3.20;2.95;;;;;;;;;;4153513;28;20121;-82
2023/04/29 12:50:51;;;;;;;4.50;3.30;;;;;;;;;;4156817;28;20333;-81
2023/04/29 12:53:12;;;;;;;3.13;2.90;;;;;;;;;;4175437;28;20065;-81
2023/04/29 12:55:33;;;;;;;1.88;1.80;;;;;;;;;;4155775;28;20233;-82
2023/04/29 12:57:54;;;;;;;2.63;2.42;;;;;;;;;;4171373;28;20049;-81
2023/04/29 13:00:14;;;;;;;2.03;1.92;;;;;;;;;;4170437;28;20081;-82
2023/04/29 13:02:34;;;;;;;1.98;1.88;;;;;;;;;;4173405;28;20140;-81
2023/04/29 13:04:56;;;;;;;2.35;2.17;;;;;;;;;;4158440;28;20116;-81
2023/04/29 13:07:17;;;;;;;2.30;1.88;;;;;;;;;;4173564;28;20279;-82
2023/04/29 13:09:40;;;;;;;2.55;1.70;;;;;;;;;;4158788;28;20105;-82
2023/04/29 13:12:01;;;;;;;3.83;2.22;;;;;;;;;;4157871;28;20045;-81
2023/04/29 13:14:22;;;;;;;2.25;1.77;;;;;;;;;;4164894;28;20117;-81
2023/04/29 13:16:43;;;;;;;2.35;1.30;;;;;;;;;;4178941;28;20088;-81
2023/04/29 13:19:04;;;;;;;3.38;1.20;;;;;;;;;;4178749;28;20051;-82
2023/04/29 13:21:45;;;;;;;1.40;1.40;;;;;;;;;;4162496;28;20120;-82
2023/04/29 13:24:06;;;;;;;2.15;1.30;;;;;;;;;;4165366;28;20052;-79
2023/04/29 13:26:26;;;;;;;3.80;2.17;;;;;;;;;;4166741;28;20060;-79
2023/04/29 13:28:46;;;;;;;1.50;1.10;;;;;;;;;;4157338;28;20056;-79
2023/04/29 13:31:06;;;;;;;2.85;1.30;;;;;;;;;;4158609;28;20045;-79
2023/04/29 13:33:26;;;;;;;6.53;1.35;;;;;;;;;;4176821;28;20413;-79
2023/04/29 13:35:48;;;;;;;1.45;1.10;;;;;;;;;;4179742;28;20593;-79
2023/04/29 13:38:08;;;;;;;1.90;1.45;;;;;;;;;;4175983;28;20048;-79
2023/04/29 13:40:28;;;;;;;1.67;1.58;;;;;;;;;;4162124;28;20380;-79
2023/04/29 13:42:49;;;;;;;2.63;1.88;;;;;;;;;;4162452;28;20092;-80
2023/04/29 13:45:21;;;;;;;1.00;1.00;;;;;;;;;;4160061;28;20049;-79
2023/04/29 13:47:43;;;;;;;1.00;1.00;;;;;;;;;;4179349;28;20079;-79
2023/04/29 13:50:23;;;;;;;1.00;1.00;;;;;;;;;;4163316;28;20563;-79
2023/04/29 13:53:03;;;;;;;1.88;1.30;;;;;;;;;;4174009;28;20363;-79
2023/04/29 13:55:27;;;;;;;1.20;1.10;;;;;;;;;;4177287;28;20117;-79
2023/04/29 13:58:08;;;;;;;1.20;1.10;;;;;;;;;;4170255;28;20052;-79
2023/04/29 14:00:31;;;;;;;1.00;1.00;;;;;;;;;;4164634;28;20056;-79
2023/04/29 14:03:11;;;;;;;1.00;1.00;;;;;;;;;;4162653;28;20411;-79
2023/04/29 14:05:31;;;;;;;1.52;1.25;;;;;;;;;;4175287;28;20044;-79
2023/04/29 14:07:52;;;;;;;1.77;1.10;;;;;;;;;;4172063;28;20079;-79
2023/04/29 14:10:12;;;;;;;1.25;1.25;;;;;;;;;;4155749;28;20129;-79